Hebron, KY (41048)

12:48 PM EDT on September 02, 2014 (GMT -0400)
West Horizon | Change Station
CLOSE
Current Station
Personal Weather Station
Location: Hebron, KY
Elevation: 879 ft
Nearby Weather Stations

Elev 879 ft 39.07 °N, 84.71 °W | Updated 18 seconds ago

Mostly Cloudy
Mostly Cloudy
74.9 °F
Feels Like 74 °F
N
2.0
Wind Variable Wind from West
Gusts 4.0 mph

Today
High -- | Low -- °F
--% Chance of Precip.
Yesterday
High -- | Low -- °F
Precip. -- in
7:08 AM 8:07 PM
First Quarter, 53% visible
Pressure 29.95 in
Visibility 10.0 miles
Clouds Few 1300 ft
Scattered Clouds 17000 ft
Mostly Cloudy 30000 ft
Heat Index 74 °F
Dew Point 71 °F
Humidity 88%
Rainfall 0.73 in
Snow Depth Not available.
UV 4 out of 12
Pollen 5.00 out of 12
Air Quality Not available.
Flu Activity Not available.
METAR KCVG 021552Z 23011G18KT 10SM FEW013 SCT170 BKN300 23/20 A2998 RMK AO2 SLP141 FEW V SCT T02330200

More Conditions Fewer Conditions

Pressure 29.95 in
Visibility 10.0 miles
Clouds Few 1300 ft
Scattered Clouds 17000 ft
Mostly Cloudy 30000 ft
Heat Index 74 °F
Dew Point 71 °F
Humidity 88%
Rainfall 0.73 in
Snow Depth Not available.
UV 4 out of 12
Pollen 5.00 out of 12
Air Quality Not available.
Flu Activity Not available.
METAR KCVG 021552Z 23011G18KT 10SM FEW013 SCT170 BKN300 23/20 A2998 RMK AO2 SLP141 FEW V SCT T02330200

More Conditions Fewer Conditions

10-Day Weather Forecast

Almanac

Astronomy

Sep. 02, 2014 Rise Set
Actual Time 7:08 AM EDT 8:07 PM EDT
Civil Twilight 6:41 AM EDT 8:35 PM EDT
Nautical Twilight 6:08 AM EDT 9:07 PM EDT
Astronomical Twilight 5:34 AM EDT 9:41 PM EDT
Moon 2:48 PM EDT 12:13 AM EDT
Length of Visible Light 13h 53m
Length of Day
12h 59m
Tomorrow will be 2m 27s shorter.
First Quarter, 53% of the Moon is Illuminated
Today
First Quarter
Sep 8
Full
Sep 15
Last Quarter
Sep 24
New
Oct 1
First Quarter

Today's Extremes

State Highs State Lows

Community

WunderPhotos

Upload Photos

1,749,716 photos uploaded!

WunderBlogs® & News

Nearby

Snow Depth

Station Depth Elevation
No new snow has been reported.

Earthquake Activity

City Distance Mag. Time & Date
No recent earthquake activity has been reported nearby.
Minimum magnitude displayed is 2.5.

Coastal Water Temperatures

Place Temperature
No Stations Reporting

Nearby Weather Stations